NCAR-RAP Real-Time Weather Data

Output produced by METARs form (17 January 2019  23:08 UTC)
found at http://weather.rap.ucar.edu/surface/
 
KACY 172154Z 04004KT 10SM BKN110 00/M04 A3030 RMK AO2 SLP259 T00001044
KACY 172054Z 10005KT 10SM CLR 00/M05 A3031 RMK AO2 SLP264 T00001050 56017
KACY 171954Z 07008KT 10SM CLR 00/M06 A3031 RMK AO2 SLP264 T00001056
KACY 171854Z 08005KT 10SM CLR 00/M09 A3034 RMK AO2 SLP274 T00001089
KACY 171754Z 14005KT 10SM CLR 00/M11 A3036 RMK AO2 SLP281 T00001106 10006 21044 58017
KACY 171554Z 03007KT 10SM CLR 01/M13 A3041 RMK AO2 SLP298 T00061133
KACY 171454Z 04009KT 10SM CLR M01/M12 A3041 RMK AO2 SLP298 T10111122 51020